createdAt,value
2023-03-15T00:01:43.085Z,34.6
2023-03-15T00:07:36.970Z,34.6
2023-03-15T00:12:58.588Z,34.6
2023-03-15T00:18:36.712Z,34.5
2023-03-15T00:24:14.134Z,34.4
2023-03-15T00:30:07.261Z,34.4
2023-03-15T00:36:00.383Z,34.4
2023-03-15T00:41:53.775Z,34.4
2023-03-15T00:47:30.575Z,34.3
2023-03-15T00:52:52.782Z,34.3
2023-03-15T00:57:59.421Z,34.3
2023-03-15T01:03:37.182Z,34.2
2023-03-15T01:08:59.382Z,34.2
2023-03-15T01:14:52.673Z,34.1
2023-03-15T01:20:45.416Z,34.1
2023-03-15T01:26:38.296Z,34.1
2023-03-15T01:32:30.291Z,34.1
2023-03-15T01:38:07.831Z,34
2023-03-15T01:43:59.628Z,34
2023-03-15T01:49:37.190Z,33.9
2023-03-15T01:55:14.301Z,33.9
2023-03-15T02:00:52.329Z,33.9
2023-03-15T02:06:29.304Z,33.8
2023-03-15T02:12:06.683Z,33.8
2023-03-15T02:23:22.008Z,33.8
2023-03-15T02:29:15.775Z,33.7
2023-03-15T02:40:15.142Z,33.6
2023-03-15T02:46:08.772Z,33.6
2023-03-15T02:57:38.395Z,33.6
2023-03-15T03:03:15.733Z,33.5
2023-03-15T03:09:08.094Z,33.4
2023-03-15T03:20:22.837Z,33.4
2023-03-15T03:25:59.546Z,33.4
2023-03-15T03:31:38.561Z,33.3
2023-03-15T03:37:31.483Z,33.3
2023-03-15T03:43:08.825Z,33.3
2023-03-15T03:49:01.955Z,33.3
2023-03-15T03:54:55.222Z,33.3
2023-03-15T04:00:32.577Z,33.2
2023-03-15T04:06:09.697Z,33.1
2023-03-15T04:11:46.416Z,33.1
2023-03-15T04:23:17.072Z,33.1
2023-03-15T04:28:54.765Z,33
2023-03-15T04:34:47.149Z,33
2023-03-15T04:40:40.004Z,32.9
2023-03-15T04:46:32.011Z,32.9
2023-03-15T04:51:53.159Z,32.9
2023-03-15T04:57:46.304Z,32.9
2023-03-15T05:03:10.297Z,32.8
2023-03-15T05:09:03.986Z,32.8
2023-03-15T05:14:59.863Z,32.8
2023-03-15T05:20:37.106Z,32.8
2023-03-15T05:26:13.843Z,32.7
2023-03-15T05:32:07.290Z,32.6
2023-03-15T05:37:44.173Z,32.5
2023-03-15T05:43:36.551Z,32.5
2023-03-15T05:49:29.255Z,32.4
2023-03-15T05:55:24.579Z,32.5
2023-03-15T06:06:40.309Z,32.4
2023-03-15T06:12:33.244Z,32.4
2023-03-15T06:18:10.876Z,32.3
2023-03-15T06:24:05.896Z,32.3
2023-03-15T06:29:58.505Z,32.3
2023-03-15T06:35:37.674Z,32.3
2023-03-15T06:41:46.283Z,32.2
2023-03-15T06:47:39.655Z,32.2
2023-03-15T06:53:48.000Z,32.1
2023-03-15T06:59:41.604Z,20.4
2023-03-15T07:05:35.918Z,30.8
2023-03-15T07:11:12.932Z,30.8
2023-03-15T07:17:07.006Z,40.1
2023-03-15T07:23:07.547Z,37.9
2023-03-15T07:29:15.685Z,36.3
2023-03-15T07:34:54.736Z,35.4
2023-03-15T07:40:50.074Z,31.2
2023-03-15T07:46:44.363Z,32.3
2023-03-15T07:52:38.658Z,34.8
2023-03-15T07:58:36.928Z,39.5
2023-03-15T08:09:43.031Z,38.9
2023-03-15T08:15:20.475Z,38.6
2023-03-15T08:21:00.163Z,38.8
2023-03-15T08:26:53.698Z,38.8
2023-03-15T08:32:47.111Z,42.1
2023-03-15T08:38:40.772Z,44.3
2023-03-15T08:44:36.392Z,44
2023-03-15T08:50:47.758Z,42.6
2023-03-15T08:56:40.143Z,46.3
2023-03-15T09:02:37.584Z,47.6
2023-03-15T09:08:17.274Z,42.9
2023-03-15T09:14:10.777Z,41.9
2023-03-15T09:20:03.103Z,43.5
2023-03-15T09:31:56.135Z,40.1
2023-03-15T09:37:54.042Z,39.3
2023-03-15T09:43:45.889Z,40.1
2023-03-15T09:49:38.125Z,42
2023-03-15T09:55:16.348Z,43.3
2023-03-15T10:00:54.595Z,41.1
2023-03-15T10:06:48.644Z,40.4
2023-03-15T10:12:42.120Z,39.4
2023-03-15T10:18:34.808Z,38.6
2023-03-15T10:24:28.063Z,38.9
2023-03-15T10:30:21.254Z,41.7
2023-03-15T10:36:40.652Z,41.8
2023-03-15T10:42:39.445Z,40.4
2023-03-15T10:48:50.501Z,39.3
2023-03-15T10:54:45.014Z,38.1
2023-03-15T11:00:51.014Z,37.8
2023-03-15T11:06:45.828Z,37.3
2023-03-15T11:12:39.145Z,36.6
2023-03-15T11:18:32.155Z,36.3
2023-03-15T11:24:25.103Z,36
2023-03-15T11:30:27.967Z,34.8
2023-03-15T11:36:06.304Z,33.8
2023-03-15T11:42:23.413Z,33.3
2023-03-15T11:48:15.892Z,32.8
2023-03-15T11:53:37.334Z,32.5
2023-03-15T11:59:17.287Z,31.9
2023-03-15T12:05:17.830Z,31.3
2023-03-15T12:11:11.385Z,30.9
2023-03-15T12:16:49.878Z,30
2023-03-15T12:22:43.136Z,29.3
2023-03-15T12:28:17.019Z,28.9
2023-03-15T12:33:56.668Z,28.6
2023-03-15T12:39:17.492Z,28.3
2023-03-15T12:44:58.364Z,28.1
2023-03-15T12:50:36.754Z,27.9
2023-03-15T12:56:24.806Z,27.8
2023-03-15T13:02:02.859Z,27.6
2023-03-15T13:07:50.584Z,27.5
2023-03-15T13:13:28.111Z,27.4
2023-03-15T13:19:05.089Z,27.3
2023-03-15T13:24:50.806Z,27.1
2023-03-15T13:30:27.164Z,27.1
2023-03-15T13:36:04.698Z,27
2023-03-15T13:41:42.032Z,26.9
2023-03-15T13:47:19.385Z,26.9
2023-03-15T13:52:57.613Z,26.8
2023-03-15T13:59:01.083Z,26.8
2023-03-15T14:04:40.161Z,26.7
2023-03-15T14:15:38.913Z,26.6
2023-03-15T14:21:33.269Z,26.5
2023-03-15T14:27:11.175Z,26.4
2023-03-15T14:32:48.033Z,26.4
2023-03-15T14:38:41.579Z,26.3
2023-03-15T14:50:24.041Z,26.3
2023-03-15T14:56:18.684Z,26.2
2023-03-15T15:02:12.202Z,26.1
2023-03-15T15:08:04.071Z,26.1
2023-03-15T15:14:12.232Z,26
2023-03-15T15:20:23.807Z,25.8
2023-03-15T15:26:29.920Z,25.8
2023-03-15T15:32:15.988Z,25.7
2023-03-15T15:38:11.232Z,25.6
2023-03-15T15:44:06.396Z,25.6
2023-03-15T15:49:42.930Z,25.4
2023-03-15T15:55:35.061Z,25.4
2023-03-15T16:01:12.725Z,25.4
2023-03-15T16:07:22.545Z,25.4
2023-03-15T16:13:14.786Z,25.4
2023-03-15T16:19:08.268Z,25.4
2023-03-15T16:25:00.651Z,25.4
2023-03-15T16:30:52.893Z,25.3
2023-03-15T16:36:56.741Z,25.3
2023-03-15T16:42:18.656Z,25.3
2023-03-15T16:48:11.724Z,25.3
2023-03-15T16:54:15.124Z,25.3
2023-03-15T17:00:20.459Z,25.3
2023-03-15T17:06:13.088Z,25.3
2023-03-15T17:12:06.040Z,25.3
2023-03-15T17:17:58.412Z,25
2023-03-15T17:23:54.424Z,24.6
2023-03-15T17:29:48.010Z,24.4
2023-03-15T17:35:40.336Z,24.1
2023-03-15T17:41:32.244Z,23.8
2023-03-15T17:47:10.334Z,23.4
2023-03-15T17:52:31.383Z,23.2
2023-03-15T17:58:16.031Z,22.9
2023-03-15T18:04:17.185Z,22.6
2023-03-15T18:10:24.468Z,22.4
2023-03-15T18:16:16.968Z,22.2
2023-03-15T18:22:09.823Z,22.1
2023-03-15T18:28:02.238Z,21.9
2023-03-15T18:33:40.503Z,21.8
2023-03-15T18:39:33.515Z,21.6
2023-03-15T18:45:10.881Z,21.6
2023-03-15T18:51:11.100Z,21.5
2023-03-15T18:56:48.099Z,21.4
2023-03-15T19:02:12.758Z,21.3
2023-03-15T19:07:50.592Z,21.3
2023-03-15T19:13:13.065Z,21.2
2023-03-15T19:30:04.075Z,21.1
2023-03-15T19:35:57.905Z,21
2023-03-15T19:41:19.372Z,20.9
2023-03-15T19:52:34.749Z,20.8
2023-03-15T19:58:14.501Z,20.8
2023-03-15T20:03:55.443Z,20.6
2023-03-15T20:09:33.870Z,20.5
2023-03-15T20:21:06.097Z,20.4
2023-03-15T20:26:28.281Z,20.3
2023-03-15T20:32:06.902Z,20.2
2023-03-15T20:38:01.441Z,20.1
2023-03-15T20:43:23.648Z,20.2
2023-03-15T20:54:08.604Z,20.7
2023-03-15T21:04:23.089Z,21.6
2023-03-15T21:10:16.407Z,22.3
2023-03-15T21:16:12.028Z,22.8
2023-03-15T21:33:05.452Z,23.9
2023-03-15T21:38:57.418Z,24.1
2023-03-15T21:44:34.654Z,24.2
2023-03-15T21:49:41.511Z,24.3
2023-03-15T21:55:02.849Z,24.3
2023-03-15T22:00:41.341Z,24.3
2023-03-15T22:06:21.067Z,24.4
2023-03-15T22:11:42.410Z,24.4
2023-03-15T22:17:46.429Z,24.4
2023-03-15T22:23:23.620Z,24.4
2023-03-15T22:28:45.201Z,24.4
2023-03-15T22:34:22.939Z,24.4
2023-03-15T22:39:44.687Z,24.4
2023-03-15T22:45:21.772Z,24.4
2023-03-15T22:50:59.433Z,24.4
2023-03-15T22:56:36.255Z,24.4
2023-03-15T23:01:58.028Z,24.4
2023-03-15T23:07:51.692Z,24.4
2023-03-15T23:13:09.441Z,24.4
2023-03-15T23:18:16.223Z,24.4
2023-03-15T23:23:38.997Z,24.4
2023-03-15T23:28:14.163Z,24.3
2023-03-15T23:33:36.652Z,24.4
2023-03-15T23:39:16.168Z,24.3
2023-03-15T23:44:54.477Z,24.4
2023-03-15T23:50:48.064Z,24.3
